Time;durP1;ratioP1;P1;durP2;ratioP2;P2;SDS_P1;SDS_P2;PMS_P1;PMS_P2;Temp;Humidity;BMP_temperature;BMP_pressure;BME280_temperature;BME280_humidity;BME280_pressure;Samples;Min_cycle;Max_cycle;Signal;HPM_P1;HPM_P2
2021/09/26 00:01:26;;;;;;;;;;;;;;;14.33;96.64;101379.94;5033285;28;19932;-48
2021/09/26 00:03:53;;;;;;;;;;;;;;;14.31;96.68;101381.84;5032220;28;20311;-50
2021/09/26 00:06:19;;;;;;;;;;;;;;;14.31;96.62;101386.31;5031696;28;20502;-48
2021/09/26 00:08:46;;;;;;;;;;;;;;;14.28;96.49;101376.78;5030245;28;20391;-52
2021/09/26 00:11:13;;;;;;;;;;;;;;;14.24;96.85;101372.69;5050106;28;19925;-52
2021/09/26 00:13:40;;;;;;;;;;;;;;;14.22;96.57;101374.59;5033691;28;20335;-52
2021/09/26 00:16:07;;;;;;;;;;;;;;;14.20;96.71;101371.22;5047615;28;20334;-53
2021/09/26 00:18:34;;;;;;;;;;;;;;;14.17;96.42;101366.16;5031312;28;19925;-48
2021/09/26 00:21:01;;;;;;;;;;;;;;;14.14;96.26;101374.31;5031245;28;19972;-54
2021/09/26 00:23:27;;;;;;;;;;;;;;;14.19;96.72;101377.44;5029764;28;20358;-51
2021/09/26 00:25:55;;;;;;;;;;;;;;;14.23;96.58;101375.44;5030780;28;20238;-49
2021/09/26 00:28:22;;;;;;;;;;;;;;;14.15;96.40;101370.69;5046749;28;19929;-48
2021/09/26 00:30:48;;;;;;;;;;;;;;;14.10;96.69;101367.56;5046754;28;19983;-51
2021/09/26 00:33:15;;;;;;;;;;;;;;;14.07;96.83;101357.16;5046685;28;19925;-52
2021/09/26 00:35:42;;;;;;;;;;;;;;;14.09;97.09;101360.56;5032146;28;19979;-51
2021/09/26 00:38:09;;;;;;;;;;;;;;;14.05;96.76;101367.03;5033606;28;19929;-52
2021/09/26 00:40:36;;;;;;;;;;;;;;;14.03;97.05;101360.03;5031750;28;19979;-51
2021/09/26 00:43:04;;;;;;;;;;;;;;;14.06;97.30;101371.34;5029726;28;19983;-42
2021/09/26 00:45:30;;;;;;;;;;;;;;;14.02;97.37;101366.28;5046130;28;19924;-41
2021/09/26 00:47:57;;;;;;;;;;;;;;;14.08;96.94;101369.44;5031124;28;19929;-42
2021/09/26 00:50:24;;;;;;;;;;;;;;;14.03;96.72;101370.63;5046381;28;19951;-42
2021/09/26 00:52:52;;;;;;;;;;;;;;;13.98;96.89;101363.97;5029833;28;20024;-41
2021/09/26 00:55:18;;;;;;;;;;;;;;;13.97;97.00;101365.75;5031010;28;20303;-42
2021/09/26 00:57:45;;;;;;;;;;;;;;;13.94;96.46;101365.97;5029912;28;19929;-43
2021/09/26 01:00:13;;;;;;;;;;;;;;;13.94;96.57;101363.34;5029557;28;19935;-44
2021/09/26 01:02:40;;;;;;;;;;;;;;;13.90;96.38;101359.22;5031264;28;20468;-41
2021/09/26 01:05:07;;;;;;;;;;;;;;;13.94;96.23;101365.97;5032807;28;19925;-41
2021/09/26 01:07:46;;;;;;;;;;;;;;;13.94;95.57;101365.97;5045289;28;19948;-42
2021/09/26 01:10:21;;;;;;;;;;;;;;;13.99;94.71;101370.97;5045984;28;19925;-43
2021/09/26 01:12:56;;;;;;;;;;;;;;;13.96;93.62;101365.88;5044591;28;20067;-41
2021/09/26 01:15:43;;;;;;;;;;;;;;;13.86;93.87;101363.03;5045519;28;19925;-40
2021/09/26 01:18:17;;;;;;;;;;;;;;;13.85;93.59;101362.22;5030589;28;19929;-42
2021/09/26 01:20:47;;;;;;;;;;;;;;;13.75;93.38;101361.16;5030311;28;20391;-40
2021/09/26 01:23:32;;;;;;;;;;;;;;;13.69;93.14;101357.16;5029972;28;19940;-40
2021/09/26 01:26:07;;;;;;;;;;;;;;;13.63;93.34;101348.81;5029727;28;19979;-41
2021/09/26 01:28:52;;;;;;;;;;;;;;;13.64;92.89;101348.69;5030342;28;19925;-40
2021/09/26 01:31:21;;;;;;;;;;;;;;;13.63;93.28;101349.66;5032710;28;19975;-43
2021/09/26 01:34:07;;;;;;;;;;;;;;;13.50;93.34;101354.09;5046433;28;19929;-40
2021/09/26 01:36:39;;;;;;;;;;;;;;;13.52;93.38;101350.41;5045360;28;19925;-41
2021/09/26 01:39:07;;;;;;;;;;;;;;;13.39;93.47;101352.22;5030667;28;19928;-41
2021/09/26 01:41:44;;;;;;;;;;;;;;;13.44;92.90;101351.88;5030045;28;19974;-41
2021/09/26 01:44:15;;;;;;;;;;;;;;;13.34;93.45;101341.91;5032756;28;19925;-40
2021/09/26 01:46:43;;;;;;;;;;;;;;;13.35;93.31;101351.56;5032677;28;19928;-40
2021/09/26 01:49:13;;;;;;;;;;;;;;;13.30;94.07;101358.91;5030412;28;19931;-41
2021/09/26 01:51:40;;;;;;;;;;;;;;;13.24;94.71;101356.72;5045230;28;19933;-41
2021/09/26 01:54:08;;;;;;;;;;;;;;;13.18;94.50;101347.41;5031673;28;20514;-41
2021/09/26 01:56:35;;;;;;;;;;;;;;;13.15;95.32;101341.50;5048233;28;19979;-42
2021/09/26 01:59:03;;;;;;;;;;;;;;;13.16;94.61;101337.91;5047808;28;19931;-40
2021/09/26 02:01:30;;;;;;;;;;;;;;;13.16;94.90;101340.53;5032728;28;19932;-40
2021/09/26 02:03:57;;;;;;;;;;;;;;;13.07;94.56;101323.53;5030085;28;19925;-41
2021/09/26 02:06:24;;;;;;;;;;;;;;;13.07;94.41;101328.81;5046346;28;20295;-41
2021/09/26 02:08:50;;;;;;;;;;;;;;;13.11;94.29;101329.44;5047984;28;19987;-41
2021/09/26 02:11:17;;;;;;;;;;;;;;;13.06;95.15;101332.41;5044476;28;20464;-42
2021/09/26 02:13:44;;;;;;;;;;;;;;;13.05;96.12;101337.78;5030056;28;19979;-41
2021/09/26 02:16:11;;;;;;;;;;;;;;;13.04;95.53;101333.47;5045382;28;20312;-43
2021/09/26 02:18:38;;;;;;;;;;;;;;;13.04;95.73;101347.50;5030144;28;19971;-41
2021/09/26 02:21:05;;;;;;;;;;;;;;;13.00;97.16;101338.09;5046575;28;19932;-42
2021/09/26 02:23:35;;;;;;;;;;;;;;;12.99;96.22;101347.81;5029576;28;19936;-42
2021/09/26 02:26:03;;;;;;;;;;;;;;;12.96;96.28;101340.09;5044019;28;19975;-42
2021/09/26 02:28:30;;;;;;;;;;;;;;;12.93;96.00;101335.03;5029736;28;20353;-43
2021/09/26 02:30:57;;;;;;;;;;;;;;;12.89;95.55;101327.41;5045804;28;19929;-45
2021/09/26 02:33:23;;;;;;;;;;;;;;;12.90;95.91;101327.31;5051141;28;19925;-53
2021/09/26 02:35:50;;;;;;;;;;;;;;;12.81;96.33;101331.41;5034987;28;19929;-51
2021/09/26 02:38:17;;;;;;;;;;;;;;;12.87;96.41;101330.16;5033052;28;19929;-51
2021/09/26 02:40:44;;;;;;;;;;;;;;;12.87;96.12;101332.81;5033176;28;19929;-48
2021/09/26 02:43:40;;;;;;;;;;;;;;;12.83;96.09;101320.75;5031989;28;20451;-49
2021/09/26 02:46:16;;;;;;;;;;;;;;;12.88;95.59;101326.56;5030090;28;19925;-53
2021/09/26 02:48:43;;;;;;;;;;;;;;;12.84;95.30;101315.38;5051612;28;19976;-46
2021/09/26 02:51:09;;;;;;;;;;;;;;;12.83;95.76;101315.50;5051480;28;20375;-47
2021/09/26 02:53:36;;;;;;;;;;;;;;;12.80;96.09;101320.94;5051543;28;19925;-47
2021/09/26 02:56:03;;;;;;;;;;;;;;;12.82;95.65;101321.72;5051361;28;20260;-51
2021/09/26 02:58:29;;;;;;;;;;;;;;;12.78;95.44;101314.94;5049493;28;19933;-48
2021/09/26 03:00:56;;;;;;;;;;;;;;;12.70;95.67;101318.09;5048174;28;19929;-48
2021/09/26 03:03:24;;;;;;;;;;;;;;;12.75;94.98;101320.41;5034994;28;19978;-52
2021/09/26 03:05:51;;;;;;;;;;;;;;;12.70;95.60;101322.53;5035697;28;19971;-49
2021/09/26 03:08:18;;;;;;;;;;;;;;;12.73;94.69;101322.31;5032347;28;20276;-49
2021/09/26 03:10:46;;;;;;;;;;;;;;;12.75;94.84;101325.69;5049167;28;19933;-48
2021/09/26 03:13:13;;;;;;;;;;;;;;;12.70;94.70;101331.28;5031503;28;19929;-48
2021/09/26 03:15:40;;;;;;;;;;;;;;;12.63;95.45;101325.56;5033596;28;20322;-52
2021/09/26 03:18:06;;;;;;;;;;;;;;;12.64;95.22;101336.97;5033265;28;19971;-53
2021/09/26 03:20:33;;;;;;;;;;;;;;;12.59;95.67;101324.06;5033440;28;19929;-52
2021/09/26 03:23:00;;;;;;;;;;;;;;;12.67;95.52;101327.03;5031610;28;20334;-53
2021/09/26 03:25:27;;;;;;;;;;;;;;;12.58;95.39;101319.72;5032728;28;19925;-53
2021/09/26 03:27:55;;;;;;;;;;;;;;;12.58;95.32;101318.91;5031438;28;19988;-49
2021/09/26 03:30:21;;;;;;;;;;;;;;;12.57;95.38;101320.72;5033106;28;19939;-51
2021/09/26 03:32:48;;;;;;;;;;;;;;;12.58;95.54;101325.00;5035150;28;20000;-52
2021/09/26 03:35:15;;;;;;;;;;;;;;;12.53;96.51;101321.84;5034809;28;19929;-52
2021/09/26 03:37:42;;;;;;;;;;;;;;;12.56;95.95;101324.28;5031619;28;19929;-49
2021/09/26 03:40:09;;;;;;;;;;;;;;;12.70;95.89;101312.81;5033060;28;20361;-49
2021/09/26 03:42:36;;;;;;;;;;;;;;;12.72;96.33;101312.69;5046104;28;19979;-49
2021/09/26 03:45:04;;;;;;;;;;;;;;;12.66;96.92;101312.16;5031884;28;19932;-46
2021/09/26 03:47:30;;;;;;;;;;;;;;;12.73;97.40;101306.47;5047384;28;19983;-48
2021/09/26 03:49:57;;;;;;;;;;;;;;;12.69;97.11;101303.19;5031996;28;19929;-49
2021/09/26 03:52:24;;;;;;;;;;;;;;;12.78;96.38;101299.09;5031909;28;19933;-48
2021/09/26 03:54:51;;;;;;;;;;;;;;;12.67;97.62;101297.19;5016207;28;19925;-49
2021/09/26 03:57:18;;;;;;;;;;;;;;;12.68;97.77;101294.44;5033959;28;19925;-49
2021/09/26 03:59:45;;;;;;;;;;;;;;;12.68;98.30;101305.00;5050222;28;19943;-52
2021/09/26 04:02:12;;;;;;;;;;;;;;;12.67;99.11;101298.03;5049859;28;19929;-50
2021/09/26 04:04:38;;;;;;;;;;;;;;;12.70;99.20;101298.78;5047944;28;19925;-51
2021/09/26 04:07:05;;;;;;;;;;;;;;;12.74;100.00;101306.38;5032150;28;19925;-47
2021/09/26 04:09:32;;;;;;;;;;;;;;;12.70;100.00;101298.78;5047490;28;19932;-51
2021/09/26 04:11:58;;;;;;;;;;;;;;;12.68;100.00;101289.16;5033772;28;19935;-53
2021/09/26 04:14:25;;;;;;;;;;;;;;;12.70;100.00;101294.34;5049846;28;19947;-50
2021/09/26 04:16:52;;;;;;;;;;;;;;;12.72;99.71;101294.22;5034512;28;19932;-49
2021/09/26 04:19:19;;;;;;;;;;;;;;;12.72;99.43;101295.09;5034557;28;19925;-53
2021/09/26 04:21:46;;;;;;;;;;;;;;;12.79;99.07;101299.00;5049938;28;20399;-50
2021/09/26 04:24:13;;;;;;;;;;;;;;;12.78;99.37;101301.75;5032650;28;20380;-51
2021/09/26 04:26:40;;;;;;;;;;;;;;;12.80;99.19;101302.47;5030258;28;19932;-50
2021/09/26 04:29:06;;;;;;;;;;;;;;;12.76;99.25;101304.50;5047306;28;19925;-52
2021/09/26 04:31:33;;;;;;;;;;;;;;;12.74;99.57;101303.75;5032345;28;19929;-52
2021/09/26 04:33:59;;;;;;;;;;;;;;;12.80;99.26;101289.28;5034191;28;20023;-51
2021/09/26 04:36:26;;;;;;;;;;;;;;;12.84;98.96;101291.63;5034284;28;19980;-52
2021/09/26 04:38:53;;;;;;;;;;;;;;;12.86;99.34;101286.25;5033978;28;20298;-51
2021/09/26 04:41:19;;;;;;;;;;;;;;;12.88;99.14;101299.31;5031038;28;19979;-39
2021/09/26 04:43:46;;;;;;;;;;;;;;;12.89;99.58;101301.03;5031541;28;19925;-41
2021/09/26 04:46:13;;;;;;;;;;;;;;;12.89;100.00;101293.94;5031018;28;20387;-40
2021/09/26 04:48:39;;;;;;;;;;;;;;;12.90;100.00;101295.63;5014849;28;19925;-41
2021/09/26 04:51:06;;;;;;;;;;;;;;;12.84;100.00;101299.53;5033034;28;19951;-51
2021/09/26 04:53:33;;;;;;;;;;;;;;;12.89;100.00;101298.38;5031437;28;19960;-49
2021/09/26 04:55:59;;;;;;;;;;;;;;;12.89;100.00;101304.50;5030273;28;19971;-42
2021/09/26 04:58:28;;;;;;;;;;;;;;;12.95;100.00;101308.50;5032310;28;19925;-48
2021/09/26 05:00:55;;;;;;;;;;;;;;;12.95;100.00;101304.09;5033103;28;19948;-42
2021/09/26 05:03:22;;;;;;;;;;;;;;;12.96;100.00;101307.56;5030694;28;19957;-43
2021/09/26 05:05:48;;;;;;;;;;;;;;;12.97;100.00;101304.81;5032149;28;20383;-43
2021/09/26 05:08:15;;;;;;;;;;;;;;;13.01;100.00;101303.66;5031188;28;19925;-40
2021/09/26 05:10:42;;;;;;;;;;;;;;;13.07;100.00;101293.63;5030629;28;19933;-41
2021/09/26 05:13:09;;;;;;;;;;;;;;;13.06;100.00;101300.72;5028483;28;19928;-41
2021/09/26 05:15:35;;;;;;;;;;;;;;;13.08;100.00;101293.53;5030432;28;19929;-41
2021/09/26 05:18:02;;;;;;;;;;;;;;;13.12;100.00;101296.81;5031136;28;20371;-41
2021/09/26 05:20:29;;;;;;;;;;;;;;;13.13;100.00;101301.13;5029482;28;20368;-42
2021/09/26 05:22:55;;;;;;;;;;;;;;;13.17;100.00;101303.47;5030265;28;20311;-43
2021/09/26 05:25:22;;;;;;;;;;;;;;;13.21;100.00;101301.47;5030104;28;20395;-41
2021/09/26 05:27:49;;;;;;;;;;;;;;;13.21;100.00;101306.75;5028732;28;20454;-41
2021/09/26 05:30:16;;;;;;;;;;;;;;;13.18;100.00;101310.44;5030976;28;19925;-42
2021/09/26 05:32:43;;;;;;;;;;;;;;;13.25;100.00;101308.22;5031952;28;19925;-40
2021/09/26 05:35:10;;;;;;;;;;;;;;;13.26;100.00;101314.34;5030541;28;19925;-41
2021/09/26 05:37:36;;;;;;;;;;;;;;;13.30;100.00;101308.72;5029071;28;20379;-40
2021/09/26 05:40:03;;;;;;;;;;;;;;;13.30;100.00;101306.09;5030622;28;20027;-40
2021/09/26 05:42:30;;;;;;;;;;;;;;;13.30;100.00;101295.53;5028465;28;19932;-43
2021/09/26 05:44:57;;;;;;;;;;;;;;;13.33;100.00;101302.41;5030195;28;20396;-43
2021/09/26 05:47:23;;;;;;;;;;;;;;;13.36;100.00;101310.13;5030152;28;20398;-40
2021/09/26 05:49:50;;;;;;;;;;;;;;;13.39;100.00;101303.78;5030672;28;20445;-40
2021/09/26 05:52:17;;;;;;;;;;;;;;;13.42;100.00;101308.88;5045273;28;20454;-42
2021/09/26 05:54:43;;;;;;;;;;;;;;;13.43;100.00;101302.63;5031481;28;19925;-41
2021/09/26 05:57:10;;;;;;;;;;;;;;;13.50;100.00;101310.03;5033145;28;20417;-40
2021/09/26 05:59:40;;;;;;;;;;;;;;;13.58;100.00;101311.28;5031737;28;19925;-47
2021/09/26 06:02:07;;;;;;;;;;;;;;;13.53;100.00;101312.44;5046785;28;20458;-48
2021/09/26 06:04:34;;;;;;;;;;;;;;;13.56;100.00;101311.38;5045536;28;19987;-42
2021/09/26 06:07:01;;;;;;;;;;;;;;;13.60;100.00;101309.38;5028562;28;19932;-40
2021/09/26 06:09:27;;;;;;;;;;;;;;;13.59;100.00;101308.53;5032554;28;19986;-42
2021/09/26 06:11:54;;;;;;;;;;;;;;;13.60;100.00;101299.66;5032955;28;20434;-41
2021/09/26 06:14:21;;;;;;;;;;;;;;;13.63;100.00;101307.38;5031593;28;19925;-41
2021/09/26 06:16:48;;;;;;;;;;;;;;;13.67;100.00;101308.84;5031627;28;20457;-41
2021/09/26 06:19:14;;;;;;;;;;;;;;;13.74;100.00;101308.41;5030854;28;19975;-41
2021/09/26 06:21:43;;;;;;;;;;;;;;;13.75;100.00;101310.09;5030291;28;20019;-39
2021/09/26 06:24:13;;;;;;;;;;;;;;;13.77;100.00;101311.69;5030264;28;19925;-40
2021/09/26 06:26:39;;;;;;;;;;;;;;;13.79;100.00;101311.56;5043197;28;19925;-42
2021/09/26 06:29:06;;;;;;;;;;;;;;;13.84;100.00;101314.72;5045486;28;19929;-40
2021/09/26 06:31:33;;;;;;;;;;;;;;;13.91;100.00;101312.50;5030298;28;19984;-40
2021/09/26 06:33:59;;;;;;;;;;;;;;;13.93;100.00;101316.69;5029923;28;20756;-40
2021/09/26 06:36:26;;;;;;;;;;;;;;;13.94;100.00;101315.75;5029242;28;19933;-41
2021/09/26 06:38:53;;;;;;;;;;;;;;;13.97;100.00;101314.69;5029975;28;20066;-40
2021/09/26 06:41:20;;;;;;;;;;;;;;;14.00;100.00;101315.31;5028036;28;19932;-40
2021/09/26 06:43:46;;;;;;;;;;;;;;;14.05;100.00;101316.78;5028499;28;19929;-41
2021/09/26 06:46:13;;;;;;;;;;;;;;;14.07;100.00;101313.06;5028419;28;19925;-40
2021/09/26 06:48:40;;;;;;;;;;;;;;;14.13;100.00;101309.97;5045226;28;19933;-48
2021/09/26 06:51:06;;;;;;;;;;;;;;;14.17;100.00;101310.59;5031920;28;20299;-49
2021/09/26 06:53:33;;;;;;;;;;;;;;;14.23;100.00;101320.72;5031186;28;19925;-51
2021/09/26 06:56:00;;;;;;;;;;;;;;;14.26;100.00;101320.50;5029373;28;20375;-53
2021/09/26 06:58:26;;;;;;;;;;;;;;;14.33;100.00;101332.31;5028405;28;19929;-51
2021/09/26 07:00:53;;;;;;;;;;;;;;;14.39;100.00;101328.38;5029703;28;19983;-53
2021/09/26 07:03:20;;;;;;;;;;;;;;;14.46;100.00;101326.97;5030136;28;19936;-49
2021/09/26 07:05:47;;;;;;;;;;;;;;;14.51;100.00;101326.63;5028878;28;19929;-50
2021/09/26 07:08:13;;;;;;;;;;;;;;;14.54;99.99;101335.19;5045233;28;19932;-53
2021/09/26 07:10:40;;;;;;;;;;;;;;;14.59;100.00;101326.91;5029496;28;19971;-50
2021/09/26 07:13:07;;;;;;;;;;;;;;;14.67;100.00;101332.50;5047466;28;19925;-48
2021/09/26 07:15:34;;;;;;;;;;;;;;;14.74;100.00;101329.38;5030002;28;19925;-50
2021/09/26 07:18:01;;;;;;;;;;;;;;;14.76;100.00;101333.59;5030066;28;19925;-50
2021/09/26 07:20:28;;;;;;;;;;;;;;;14.83;100.00;101339.28;5033205;28;19925;-47
2021/09/26 07:22:55;;;;;;;;;;;;;;;14.86;100.00;101344.34;5031333;28;19925;-48
2021/09/26 07:25:22;;;;;;;;;;;;;;;14.89;100.00;101338.84;5033016;28;19925;-51
2021/09/26 07:27:48;;;;;;;;;;;;;;;14.96;100.00;101340.06;5031958;28;19925;-50
2021/09/26 07:30:15;;;;;;;;;;;;;;;15.01;100.00;101339.69;5032991;28;19929;-48
2021/09/26 07:32:42;;;;;;;;;;;;;;;15.05;100.00;101338.50;5035258;28;19983;-48
2021/09/26 07:35:09;;;;;;;;;;;;;;;15.18;100.00;101336.59;5034844;28;19925;-49
2021/09/26 07:37:35;;;;;;;;;;;;;;;15.27;99.99;101340.38;5031171;28;19933;-48
2021/09/26 07:40:02;;;;;;;;;;;;;;;15.31;100.00;101346.25;5032809;28;19937;-49
2021/09/26 07:42:29;;;;;;;;;;;;;;;15.35;100.00;101345.06;5033076;28;19925;-42
2021/09/26 07:45:03;;;;;;;;;;;;;;;15.36;99.82;101349.41;5032058;28;20654;-42
2021/09/26 07:47:30;;;;;;;;;;;;;;;15.54;98.99;101347.97;5046706;28;19932;-41
2021/09/26 07:49:57;;;;;;;;;;;;;;;15.66;98.72;101351.44;5050237;28;19925;-43
2021/09/26 07:52:23;;;;;;;;;;;;;;;15.68;99.07;101352.19;5033775;28;19925;-41
2021/09/26 07:54:51;;;;;;;;;;;;;;;15.75;98.65;101352.56;5033389;28;19929;-40
2021/09/26 07:57:19;;;;;;;;;;;;;;;15.84;98.95;101358.94;5030823;28;19971;-40
2021/09/26 07:59:46;;;;;;;;;;;;;;;16.08;98.27;101364.13;5047178;28;19925;-42
2021/09/26 08:02:13;;;;;;;;;;;;;;;16.28;98.15;101366.94;5032252;28;19925;-41
2021/09/26 08:04:40;;;;;;;;;;;;;;;16.31;98.20;101374.69;5032290;28;20418;-41
2021/09/26 08:07:07;;;;;;;;;;;;;;;16.38;97.61;101384.66;5032891;28;19947;-40
2021/09/26 08:09:35;;;;;;;;;;;;;;;16.42;97.90;101385.28;5032907;28;19925;-41
2021/09/26 08:12:02;;;;;;;;;;;;;;;16.52;98.09;101372.94;5030062;28;19925;-41
2021/09/26 08:14:29;;;;;;;;;;;;;;;16.67;96.61;101369.97;5031475;28;19975;-42
2021/09/26 08:16:55;;;;;;;;;;;;;;;16.76;97.00;101361.25;5031717;28;19933;-40
2021/09/26 08:19:22;;;;;;;;;;;;;;;17.02;94.74;101361.75;5032854;28;19925;-45
2021/09/26 08:21:49;;;;;;;;;;;;;;;17.31;94.44;101358.41;5034633;28;19975;-43
2021/09/26 08:24:15;;;;;;;;;;;;;;;17.46;93.32;101356.25;5034469;28;19925;-41
2021/09/26 08:26:42;;;;;;;;;;;;;;;17.78;91.31;101359.75;5034266;28;19933;-42
2021/09/26 08:29:09;;;;;;;;;;;;;;;18.06;90.75;101364.38;5031389;28;19936;-41
2021/09/26 08:31:35;;;;;;;;;;;;;;;18.22;91.39;101366.47;5029964;28;19987;-43
2021/09/26 08:34:02;;;;;;;;;;;;;;;18.37;90.03;101361.59;5030902;28;19925;-44
2021/09/26 08:36:29;;;;;;;;;;;;;;;18.57;88.44;101362.47;5046811;28;19953;-44
2021/09/26 08:38:55;;;;;;;;;;;;;;;18.79;88.61;101359.63;5031627;28;19929;-47
2021/09/26 08:41:22;;;;;;;;;;;;;;;18.96;86.72;101356.28;5033175;28;20395;-45
2021/09/26 08:43:53;;;;;;;;;;;;;;;19.23;85.12;101362.72;5048847;28;19925;-44
2021/09/26 08:46:19;;;;;;;;;;;;;;;19.29;84.83;101363.94;5034269;28;19925;-45
2021/09/26 08:48:46;;;;;;;;;;;;;;;19.37;83.83;101367.59;5049151;28;19925;-47
2021/09/26 08:51:13;;;;;;;;;;;;;;;19.59;83.71;101368.19;5031870;28;20406;-45
2021/09/26 08:53:40;;;;;;;;;;;;;;;19.82;83.86;101365.19;5031185;28;19957;-43
2021/09/26 08:56:06;;;;;;;;;;;;;;;19.89;81.17;101371.59;5048792;28;19952;-44
2021/09/26 08:58:33;;;;;;;;;;;;;;;19.80;82.75;101376.00;5033778;28;19925;-47
2021/09/26 09:01:00;;;;;;;;;;;;;;;19.87;83.49;101376.25;5033728;28;20441;-45
2021/09/26 09:03:30;;;;;;;;;;;;;;;19.93;82.64;101370.31;5033728;28;20621;-43
2021/09/26 09:05:56;;;;;;;;;;;;;;;20.10;82.22;101374.03;5032666;28;19925;-54
2021/09/26 09:08:23;;;;;;;;;;;;;;;20.19;81.75;101378.47;5029726;28;19929;-54
2021/09/26 09:10:54;;;;;;;;;;;;;;;20.53;81.82;101376.97;5029965;28;19929;-53
2021/09/26 09:13:21;;;;;;;;;;;;;;;20.74;80.66;101372.19;5030282;28;19947;-53
2021/09/26 09:15:55;;;;;;;;;;;;;;;20.97;79.92;101366.34;5030509;28;20272;-54
2021/09/26 09:18:22;;;;;;;;;;;;;;;21.17;79.05;101371.50;5030823;28;20376;-53
2021/09/26 09:20:49;;;;;;;;;;;;;;;21.40;78.65;101377.97;5048440;28;19991;-51
2021/09/26 09:23:17;;;;;;;;;;;;;;;21.54;78.53;101384.63;5028737;28;20288;-50
2021/09/26 09:25:44;;;;;;;;;;;;;;;21.75;77.20;101378.03;5030796;28;20319;-52
2021/09/26 09:28:21;;;;;;;;;;;;;;;21.94;75.47;101380.44;5032079;28;19948;-51
2021/09/26 09:30:52;;;;;;;;;;;;;;;22.27;75.38;101374.34;5030576;28;20376;-52
2021/09/26 09:33:19;;;;;;;;;;;;;;;22.51;74.83;101378.97;5032270;28;19925;-51
2021/09/26 09:35:47;;;;;;;;;;;;;;;22.62;73.92;101380.47;5029553;28;20584;-51
2021/09/26 09:38:18;;;;;;;;;;;;;;;22.62;72.40;101378.63;5045371;28;20330;-51
2021/09/26 09:40:47;;;;;;;;;;;;;;;22.86;72.10;101376.94;5031505;28;19929;-41
2021/09/26 09:43:14;;;;;;;;;;;;;;;22.73;72.24;101382.81;5027937;28;20362;-42
2021/09/26 09:45:48;;;;;;;;;;;;;;;22.73;72.31;101382.00;5029841;28;19971;-43
2021/09/26 09:48:16;;;;;;;;;;;;;;;22.95;71.07;101386.66;5030054;28;19925;-45
2021/09/26 09:50:43;;;;;;;;;;;;;;;23.09;70.82;101387.00;5045206;28;19937;-47
2021/09/26 09:53:20;;;;;;;;;;;;;;;22.90;71.51;101380.13;5029432;28;19932;-43
2021/09/26 09:56:17;;;;;;;;;;;;;;;23.09;70.68;101387.81;5031534;28;19928;-41
2021/09/26 09:58:56;;;;;;;;;;;;;;;23.48;70.33;101382.75;5025790;28;19929;-45
2021/09/26 10:01:27;;;;;;;;;;;;;;;23.37;69.51;101384.81;5030458;28;19926;-43
2021/09/26 10:03:55;;;;;;;;;;;;;;;23.67;68.45;101385.06;5032980;28;20388;-44
2021/09/26 10:06:24;;;;;;;;;;;;;;;23.97;67.40;101387.97;5030063;28;20419;-51
2021/09/26 10:08:53;;;;;;;;;;;;;;;24.04;67.81;101374.69;5044939;28;19925;-48
2021/09/26 10:11:24;;;;;;;;;;;;;;;23.98;67.32;101375.38;5028194;28;19936;-53
2021/09/26 10:13:50;;;;;;;;;;;;;;;24.22;67.35;101379.78;5026478;28;20644;-53
2021/09/26 10:16:18;;;;;;;;;;;;;;;24.46;66.88;101379.63;5044670;28;19925;-53
2021/09/26 10:18:45;;;;;;;;;;;;;;;24.71;65.30;101387.53;5028112;28;20357;-42
2021/09/26 10:21:12;;;;;;;;;;;;;;;24.62;65.79;101388.59;5028411;28;20470;-44
2021/09/26 10:23:42;;;;;;;;;;;;;;;24.87;65.27;101391.94;5044194;28;19929;-44
2021/09/26 10:26:09;;;;;;;;;;;;;;;24.89;65.85;101383.69;5027361;28;19929;-47
2021/09/26 10:28:36;;;;;;;;;;;;;;;25.04;64.48;101381.84;5028711;28;19929;-45
2021/09/26 10:31:04;;;;;;;;;;;;;;;25.35;63.84;101391.69;5044244;28;19931;-43
2021/09/26 10:33:30;;;;;;;;;;;;;;;25.16;64.04;101389.50;5026979;28;20391;-46
2021/09/26 10:35:58;;;;;;;;;;;;;;;25.46;62.91;101401.97;5027811;28;19976;-45
2021/09/26 10:38:25;;;;;;;;;;;;;;;25.65;62.09;101391.69;5027544;28;20387;-44
2021/09/26 10:40:51;;;;;;;;;;;;;;;25.71;62.33;101392.78;5043757;28;19925;-45
2021/09/26 10:43:18;;;;;;;;;;;;;;;25.18;61.97;101395.53;5027615;28;19925;-44
2021/09/26 10:45:45;;;;;;;;;;;;;;;25.41;62.99;101393.59;5028335;28;20394;-46
2021/09/26 10:48:12;;;;;;;;;;;;;;;25.74;61.96;101397.78;5028506;28;19979;-46
2021/09/26 10:50:39;;;;;;;;;;;;;;;25.99;60.99;101401.03;5032129;28;19925;-44
2021/09/26 10:53:13;;;;;;;;;;;;;;;26.27;59.75;101397.63;5029519;28;19935;-45
2021/09/26 10:55:40;;;;;;;;;;;;;;;26.22;59.86;101398.22;5032868;28;19929;-46
2021/09/26 10:58:07;;;;;;;;;;;;;;;26.55;59.36;101395.03;5045690;28;19975;-47
2021/09/26 11:00:35;;;;;;;;;;;;;;;26.53;57.81;101390.84;5032090;28;19972;-47
2021/09/26 11:03:06;;;;;;;;;;;;;;;26.94;57.70;101395.59;5051136;28;19925;-46
2021/09/26 11:05:40;;;;;;;;;;;;;;;26.66;56.90;101390.97;5047458;28;19929;-42
2021/09/26 11:08:16;;;;;;;;;;;;;;;27.12;57.50;101397.81;5032367;28;19929;-42
2021/09/26 11:10:47;;;;;;;;;;;;;;;26.87;57.01;101394.69;5035935;28;19929;-44
2021/09/26 11:13:13;;;;;;;;;;;;;;;27.27;55.44;101393.13;5032576;28;19929;-43
2021/09/26 11:15:58;;;;;;;;;;;;;;;27.51;54.65;101390.19;5032236;28;19959;-48
2021/09/26 11:18:44;;;;;;;;;;;;;;;27.62;54.76;101390.47;5047829;28;19979;-45
2021/09/26 11:21:30;;;;;;;;;;;;;;;27.82;53.77;101395.94;5047689;28;19940;-45
2021/09/26 11:24:00;;;;;;;;;;;;;;;27.30;54.82;101397.31;5032024;28;19935;-42
2021/09/26 11:26:47;;;;;;;;;;;;;;;26.95;54.88;101390.00;5035727;28;19972;-48
2021/09/26 11:29:14;;;;;;;;;;;;;;;27.51;53.75;101393.72;5035409;28;19925;-45
2021/09/26 11:31:41;;;;;;;;;;;;;;;27.92;53.69;101395.59;5034307;28;19983;-48
2021/09/26 11:34:08;;;;;;;;;;;;;;;28.30;53.46;101384.28;5033285;28;19929;-45
2021/09/26 11:36:35;;;;;;;;;;;;;;;28.22;51.67;101391.75;5047353;28;19925;-47
2021/09/26 11:39:20;;;;;;;;;;;;;;;28.65;52.05;101384.16;5033254;28;19925;-49
2021/09/26 11:41:47;;;;;;;;;;;;;;;28.95;51.11;101383.72;5035320;28;20027;-45
2021/09/26 11:44:16;;;;;;;;;;;;;;;28.96;49.66;101384.56;5050398;28;19971;-47
2021/09/26 11:46:46;;;;;;;;;;;;;;;28.41;50.98;101393.66;5033906;28;19976;-42
2021/09/26 11:49:13;;;;;;;;;;;;;;;27.88;52.52;101386.19;5050212;28;19925;-42
2021/09/26 11:51:40;;;;;;;;;;;;;;;27.42;52.99;101387.66;5048942;28;19948;-44
2021/09/26 11:54:07;;;;;;;;;;;;;;;27.71;52.88;101388.44;5032719;28;19925;-45
2021/09/26 11:56:35;;;;;;;;;;;;;;;27.64;54.40;101388.38;5030337;28;19928;-44
2021/09/26 11:59:04;;;;;;;;;;;;;;;27.66;54.43;101388.19;5033772;28;19936;-45
2021/09/26 12:01:33;;;;;;;;;;;;;;;27.55;53.66;101383.34;5034539;28;19975;-48
2021/09/26 12:04:06;;;;;;;;;;;;;;;27.67;54.66;101379.88;5031732;28;19925;-50
2021/09/26 12:06:33;;;;;;;;;;;;;;;27.56;54.37;101376.94;5030862;28;19931;-46
2021/09/26 12:08:59;;;;;;;;;;;;;;;27.55;53.55;101377.97;5033371;28;19979;-47
2021/09/26 12:11:26;;;;;;;;;;;;;;;27.27;53.61;101379.63;5034782;28;19971;-45
2021/09/26 12:13:54;;;;;;;;;;;;;;;27.28;53.74;101367.81;5050042;28;19925;-47
2021/09/26 12:16:21;;;;;;;;;;;;;;;27.07;54.72;101371.41;5032155;28;19929;-43
2021/09/26 12:18:52;;;;;;;;;;;;;;;27.05;54.65;101370.78;5032995;28;20371;-45
2021/09/26 12:21:19;;;;;;;;;;;;;;;26.60;55.54;101367.47;5032871;28;20426;-50
2021/09/26 12:23:48;;;;;;;;;;;;;;;26.79;55.73;101372.25;5031686;28;19925;-45
2021/09/26 12:26:20;;;;;;;;;;;;;;;26.50;56.24;101373.19;5032709;28;19952;-45
2021/09/26 12:28:57;;;;;;;;;;;;;;;26.58;56.17;101377.63;5034575;28;19929;-46
2021/09/26 12:31:26;;;;;;;;;;;;;;;26.53;56.64;101369.28;5033661;28;20376;-47
2021/09/26 12:33:54;;;;;;;;;;;;;;;26.47;57.14;101371.69;5031388;28;19925;-46
2021/09/26 12:36:21;;;;;;;;;;;;;;;26.59;55.93;101371.22;5031425;28;19932;-45
2021/09/26 12:38:52;;;;;;;;;;;;;;;26.47;55.88;101371.69;5047213;28;20047;-49